메인 페이지
METAR-TAF:

METAR-TAF

공항 :

무르만스크, 러시아

위도: 68-58N, 경도: 033-03E, 고도: 51m

현재 날씨관측

예보는 27분 전, 05:30시(UTC)에 발표되었습니다.
남남동2kt
온도 -21°C
습도 70%
기압 1027 hPa
시정 10km 이상
고도 300ft 상공 구름 보통
고도 1600ft 상공 구름 많음

METAR: ULMM 200530Z 15001MPS 9999 SCT003 BKN016 M21/M25 Q1027 R31/450154 NOSIG RMK QBB100 OBST OBSC QFE763

시각: 08:57 (05:57 UTC)

예보

예보는 1 시간 7분 전, 04:50시(UTC)에 발표되었습니다.
예보 대상 시간: 20일 06시부터 21일 06시까지 (UTC)
6kt
시정: 6000m
고도 1100ft 상공 구름 많음
일시적
20일 06시부터 20일 09시까지 (UTC)
여러 방향의 바람 2kt
시정: 0400m
고도 300ft 상공
어는 안개
일시적
20일 09시부터 20일 16시까지 (UTC)
북서6kt, 순간 최대 풍속 16kt
시정: 3100m
고도 1100ft 상공 구름 많음, 적란운.
약한소낙눈
일시적
20일 16시부터 21일 06시까지 (UTC)
북서10kt, 순간 최대 풍속 19kt
시정: 2100m
고도 500ft 상공 구름 많음
고도 1100ft 상공 구름 많음, 적란운.
약한소낙눈

TAF: ULMM 200450Z 2006/2106 27003MPS 6000 BKN011 TEMPO 2006/2009 VRB01MPS 0400 FZFG VV003 TEMPO 2009/2016 31003G08MPS 3100 -SHSN BKN011CB TEMPO 2016/2106 31005G10MPS 2100 -SHSN BKN005 BKN011CB

4,000개 이상의 공항 관측 자료 및 예보 (METAR 및 TAF 보고).

지도상에서 검색 가능한 기상관측소가 노란 점과 빨간 점으로 표시되어 있습니다.

기상관측소 명을 보려면 표시 위로 마우스를 이동하세요.

날씨 관측과 예보를 보려면 클릭하세요.

지도 변경 : 확대하려면 엑스 표시가 있는 녹색 버튼, 축소하려면 빼기 표시가 있는 녹색 버튼, 다음 페이지의 지도를 보려면 녹색 화살표를 클릭하세요.


METAR-TAF: